Terminal Aerodrome Forecast
Issued by NWS

Current Version | Previous Version | Graphics & Text | Print | Product List | Glossary On
Versions: 1 2 3 4 5 6 7 8 9 10 11 12 13 14 15 16 17 18 19 20 21 22
000
FTUS41 KILN 241126
TAFLUK
TAF
KLUK 241126Z 2412/2512 18005KT P6SM SCT090 BKN250
     FM241500 19008KT P6SM SCT045 BKN250
     FM241800 21010G18KT P6SM VCTS BKN050CB
     FM250000 21004KT P6SM SCT050 BKN250=

USA.gov is the U.S. government's official web portal to all federal, state and local government web resources and services.